createdAt,value
2022-08-27T00:01:23.895Z,20.43
2022-08-27T00:03:51.902Z,20.28
2022-08-27T00:06:20.602Z,20.19
2022-08-27T00:08:49.352Z,20.19
2022-08-27T00:11:18.742Z,20.14
2022-08-27T00:13:46.742Z,20.12
2022-08-27T00:16:17.372Z,20.01
2022-08-27T00:18:48.240Z,20.03
2022-08-27T00:21:17.210Z,20.06
2022-08-27T00:23:44.716Z,20.07
2022-08-27T00:26:13.061Z,19.96
2022-08-27T00:28:40.881Z,19.73
2022-08-27T00:31:12.124Z,19.70
2022-08-27T00:33:41.794Z,19.67
2022-08-27T00:36:09.827Z,19.68
2022-08-27T00:38:38.536Z,19.80
2022-08-27T00:41:08.709Z,19.51
2022-08-27T00:43:47.026Z,18.67
2022-08-27T00:46:21.062Z,18.08
2022-08-27T00:48:51.908Z,18.40
2022-08-27T00:51:21.378Z,19.09
2022-08-27T00:53:49.640Z,19.29
2022-08-27T00:56:20.334Z,19.47
2022-08-27T00:58:51.620Z,19.80
2022-08-27T01:01:23.404Z,19.39
2022-08-27T01:03:56.150Z,19.25
2022-08-27T01:06:26.476Z,18.91
2022-08-27T01:08:59.873Z,18.84
2022-08-27T01:11:27.386Z,18.84
2022-08-27T01:13:59.877Z,19.10
2022-08-27T01:16:33.623Z,19.32
2022-08-27T01:19:04.336Z,19.63
2022-08-27T01:21:37.557Z,20.00
2022-08-27T01:24:14.838Z,20.23
2022-08-27T01:26:44.039Z,20.37
2022-08-27T01:29:11.840Z,20.43
2022-08-27T01:31:39.411Z,20.33
2022-08-27T01:34:07.552Z,20.35
2022-08-27T01:36:35.275Z,20.39
2022-08-27T01:39:02.956Z,20.40
2022-08-27T01:41:32.909Z,20.18
2022-08-27T01:44:01.753Z,20.24
2022-08-27T01:46:29.687Z,20.38
2022-08-27T01:48:57.207Z,20.50
2022-08-27T01:51:24.820Z,20.42
2022-08-27T01:53:52.330Z,20.17
2022-08-27T01:56:19.832Z,19.97
2022-08-27T01:58:47.368Z,19.81
2022-08-27T02:01:17.360Z,19.74
2022-08-27T02:03:47.296Z,20.00
2022-08-27T02:06:15.416Z,20.11
2022-08-27T02:08:43.110Z,20.14
2022-08-27T02:11:10.688Z,20.14
2022-08-27T02:13:39.145Z,20.18
2022-08-27T02:16:07.293Z,20.14
2022-08-27T02:18:38.463Z,20.02
2022-08-27T02:21:09.274Z,19.55
2022-08-27T02:23:37.162Z,19.51
2022-08-27T02:26:04.849Z,19.27
2022-08-27T02:28:32.383Z,18.45
2022-08-27T02:31:00.754Z,18.12
2022-08-27T02:33:28.636Z,18.29
2022-08-27T02:35:57.481Z,17.76
2022-08-27T02:38:25.051Z,18.02
2022-08-27T02:40:54.257Z,17.86
2022-08-27T02:43:25.231Z,17.75
2022-08-27T02:45:53.476Z,17.55
2022-08-27T02:48:21.384Z,17.93
2022-08-27T02:50:48.897Z,18.20
2022-08-27T02:53:18.490Z,18.68
2022-08-27T02:55:46.612Z,18.92
2022-08-27T02:58:16.719Z,19.12
2022-08-27T03:00:44.468Z,19.43
2022-08-27T03:03:12.059Z,19.58
2022-08-27T03:05:39.587Z,19.72
2022-08-27T03:08:07.747Z,19.79
2022-08-27T03:10:36.731Z,19.58
2022-08-27T03:13:04.290Z,18.75
2022-08-27T03:15:31.892Z,18.19
2022-08-27T03:18:17.351Z,18.75
2022-08-27T03:20:46.493Z,19.35
2022-08-27T03:23:15.615Z,19.52
2022-08-27T03:25:47.995Z,19.31
2022-08-27T03:28:22.739Z,19.51
2022-08-27T03:30:52.784Z,19.49
2022-08-27T03:33:21.737Z,19.53
2022-08-27T03:35:51.839Z,19.52
2022-08-27T03:38:20.175Z,19.57
2022-08-27T03:40:49.532Z,19.46
2022-08-27T03:43:18.998Z,19.25
2022-08-27T03:46:01.006Z,19.23
2022-08-27T03:48:30.908Z,19.31
2022-08-27T03:50:58.457Z,19.17
2022-08-27T03:53:26.022Z,19.26
2022-08-27T03:55:54.947Z,19.26
2022-08-27T03:58:22.433Z,19.34
2022-08-27T04:00:50.200Z,19.14
2022-08-27T04:03:17.677Z,19.16
2022-08-27T04:05:45.418Z,19.26
2022-08-27T04:08:13.735Z,19.26
2022-08-27T04:10:41.570Z,19.17
2022-08-27T04:13:10.387Z,19.18
2022-08-27T04:15:40.643Z,19.12
2022-08-27T04:18:08.848Z,18.99
2022-08-27T04:20:36.653Z,19.04
2022-08-27T04:23:04.473Z,19.12
2022-08-27T04:25:32.017Z,19.18
2022-08-27T04:27:59.717Z,19.26
2022-08-27T04:30:28.636Z,19.27
2022-08-27T04:32:56.124Z,19.24
2022-08-27T04:35:23.723Z,19.37
2022-08-27T04:37:51.227Z,19.42
2022-08-27T04:40:18.951Z,19.46
2022-08-27T04:42:46.492Z,19.55
2022-08-27T04:45:14.206Z,19.60
2022-08-27T04:47:43.075Z,19.69
2022-08-27T04:50:11.312Z,19.60
2022-08-27T04:52:41.203Z,19.83
2022-08-27T04:55:10.324Z,20.07
2022-08-27T04:57:38.157Z,20.24
2022-08-27T05:00:08.423Z,20.53
2022-08-27T05:02:35.955Z,20.92
2022-08-27T05:05:05.019Z,21.39
2022-08-27T05:07:32.562Z,21.80
2022-08-27T05:10:00.059Z,22.33
2022-08-27T05:12:27.537Z,22.87
2022-08-27T05:14:55.656Z,23.33
2022-08-27T05:17:23.167Z,23.79
2022-08-27T05:19:50.672Z,24.16
2022-08-27T05:22:19.627Z,24.50
2022-08-27T05:24:50.381Z,24.97
2022-08-27T05:27:18.108Z,25.60
2022-08-27T05:29:45.597Z,26.34
2022-08-27T05:32:13.430Z,26.87
2022-08-27T05:34:40.915Z,27.20
2022-08-27T05:37:08.460Z,27.30
2022-08-27T05:39:37.324Z,27.38
2022-08-27T05:42:05.180Z,27.54
2022-08-27T05:44:41.274Z,27.54
2022-08-27T05:47:09.967Z,27.30
2022-08-27T05:49:37.606Z,26.83
2022-08-27T05:52:09.533Z,26.39
2022-08-27T05:54:38.888Z,25.89
2022-08-27T05:57:06.825Z,25.51
2022-08-27T05:59:51.869Z,25.14
2022-08-27T06:02:20.795Z,24.23
2022-08-27T06:04:48.694Z,23.66
2022-08-27T06:07:16.322Z,23.30
2022-08-27T06:09:45.143Z,23.56
2022-08-27T06:12:12.684Z,22.91
2022-08-27T06:14:40.428Z,22.79
2022-08-27T06:17:08.248Z,22.72
2022-08-27T06:19:37.647Z,21.63
2022-08-27T06:22:10.597Z,21.88
2022-08-27T06:24:40.233Z,21.51
2022-08-27T06:27:11.177Z,21.58
2022-08-27T06:29:39.492Z,22.07
2022-08-27T06:32:07.704Z,21.75
2022-08-27T06:34:35.192Z,22.07
2022-08-27T06:37:02.804Z,21.69
2022-08-27T06:39:32.856Z,20.98
2022-08-27T06:42:00.551Z,21.30
2022-08-27T06:44:29.536Z,21.69
2022-08-27T06:46:57.030Z,22.10
2022-08-27T06:49:24.835Z,21.93
2022-08-27T06:51:52.323Z,21.19
2022-08-27T06:54:20.054Z,21.40
2022-08-27T06:56:49.168Z,21.86
2022-08-27T06:59:19.705Z,21.53
2022-08-27T07:01:51.301Z,21.12
2022-08-27T07:04:21.396Z,21.19
2022-08-27T07:06:49.765Z,22.61
2022-08-27T07:09:20.514Z,23.50
2022-08-27T07:11:48.553Z,25.55
2022-08-27T07:14:16.431Z,25.01
2022-08-27T07:16:45.292Z,24.68
2022-08-27T07:19:16.996Z,24.54
2022-08-27T07:21:44.780Z,24.19
2022-08-27T07:24:12.476Z,24.03
2022-08-27T07:26:42.974Z,23.58
2022-08-27T07:29:14.822Z,22.58
2022-08-27T07:31:43.630Z,22.85
2022-08-27T07:34:11.440Z,23.07
2022-08-27T07:36:41.020Z,24.03
2022-08-27T07:39:08.918Z,24.78
2022-08-27T07:41:58.202Z,23.77
2022-08-27T07:44:26.111Z,23.67
2022-08-27T07:46:54.505Z,23.53
2022-08-27T07:49:22.784Z,23.54
2022-08-27T07:51:52.421Z,24.16
2022-08-27T07:54:22.892Z,24.89
2022-08-27T07:56:55.501Z,26.49
2022-08-27T07:59:24.067Z,27.09
2022-08-27T08:01:52.010Z,29.02
2022-08-27T08:04:20.403Z,31.10
2022-08-27T08:06:48.765Z,32.81
2022-08-27T08:09:17.719Z,32.39
2022-08-27T08:11:45.232Z,33.01
2022-08-27T08:14:12.772Z,35.34
2022-08-27T08:16:40.325Z,37.45
2022-08-27T08:19:09.118Z,38.48
2022-08-27T08:21:37.946Z,38.68
2022-08-27T08:24:05.867Z,38.18
2022-08-27T08:26:35.822Z,35.39
2022-08-27T08:29:04.867Z,32.56
2022-08-27T08:31:32.469Z,32.51
2022-08-27T08:33:59.994Z,32.58
2022-08-27T08:36:27.508Z,32.99
2022-08-27T08:38:55.342Z,33.56
2022-08-27T08:41:41.295Z,33.69
2022-08-27T08:44:16.028Z,33.31
2022-08-27T08:46:49.544Z,32.94
2022-08-27T08:49:31.284Z,32.65
2022-08-27T08:52:08.651Z,32.63
2022-08-27T08:54:36.702Z,30.25
2022-08-27T08:57:12.899Z,26.58
2022-08-27T08:59:55.410Z,26.31
2022-08-27T09:02:23.043Z,25.73
2022-08-27T09:04:54.299Z,25.40
2022-08-27T09:07:30.564Z,24.96
2022-08-27T09:10:04.399Z,25.05
2022-08-27T09:12:33.486Z,24.03
2022-08-27T09:15:12.399Z,23.52
2022-08-27T09:17:41.886Z,23.80
2022-08-27T09:20:13.014Z,22.46
2022-08-27T09:22:52.868Z,21.62
2022-08-27T09:25:25.386Z,22.32
2022-08-27T09:27:58.038Z,22.63
2022-08-27T09:30:30.725Z,22.99
2022-08-27T09:33:03.988Z,23.73
2022-08-27T09:35:41.951Z,24.42
2022-08-27T09:38:10.439Z,24.50
2022-08-27T09:40:44.400Z,25.20
2022-08-27T09:43:23.363Z,25.71
2022-08-27T09:45:53.142Z,25.70
2022-08-27T09:48:23.097Z,25.76
2022-08-27T09:50:53.191Z,26.09
2022-08-27T09:53:25.342Z,28.04
2022-08-27T09:55:56.416Z,29.76
2022-08-27T09:58:30.663Z,30.10
2022-08-27T10:01:04.328Z,29.40
2022-08-27T10:03:33.524Z,28.18
2022-08-27T10:06:01.508Z,28.17
2022-08-27T10:08:36.247Z,27.86
2022-08-27T10:11:07.662Z,27.34
2022-08-27T10:13:42.903Z,27.24
2022-08-27T10:16:26.541Z,27.34
2022-08-27T10:19:12.531Z,27.45
2022-08-27T10:21:47.868Z,27.37
2022-08-27T10:24:30.913Z,27.15
2022-08-27T10:27:13.837Z,27.38
2022-08-27T10:29:50.976Z,27.72
2022-08-27T10:32:35.167Z,27.23
2022-08-27T10:35:10.416Z,27.13
2022-08-27T10:37:49.775Z,27.31
2022-08-27T10:40:23.088Z,27.58
2022-08-27T10:43:01.495Z,27.33
2022-08-27T10:45:42.939Z,27.16
2022-08-27T10:48:24.508Z,27.72
2022-08-27T10:50:57.596Z,28.24
2022-08-27T10:53:37.236Z,28.03
2022-08-27T10:56:14.326Z,27.80
2022-08-27T10:59:03.437Z,28.03
2022-08-27T11:01:44.864Z,27.91
2022-08-27T11:04:18.559Z,27.47
2022-08-27T11:06:54.157Z,26.78
2022-08-27T11:09:29.455Z,27.08
2022-08-27T11:12:15.654Z,26.68
2022-08-27T11:14:49.109Z,26.56
2022-08-27T11:17:24.525Z,25.91
2022-08-27T11:19:56.327Z,25.65
2022-08-27T11:22:30.353Z,26.01
2022-08-27T11:25:03.688Z,26.26
2022-08-27T11:27:34.249Z,26.09
2022-08-27T11:30:06.383Z,26.08
2022-08-27T11:32:49.170Z,25.96
2022-08-27T11:35:22.586Z,25.88
2022-08-27T11:38:15.968Z,25.58
2022-08-27T11:41:00.240Z,24.72
2022-08-27T11:43:33.738Z,24.41
2022-08-27T11:46:03.123Z,23.69
2022-08-27T11:48:34.545Z,23.34
2022-08-27T11:51:05.647Z,23.24
2022-08-27T11:53:35.223Z,23.34
2022-08-27T11:56:36.781Z,23.15
2022-08-27T11:59:11.111Z,23.12
2022-08-27T12:01:40.160Z,22.96
2022-08-27T12:04:23.539Z,21.92
2022-08-27T12:06:53.222Z,21.23
2022-08-27T12:09:23.934Z,21.23
2022-08-27T12:12:04.121Z,20.80
2022-08-27T12:14:43.395Z,20.72
2022-08-27T12:17:21.080Z,21.23
2022-08-27T12:20:01.452Z,21.54
2022-08-27T12:22:58.246Z,21.08
2022-08-27T12:25:26.276Z,20.54
2022-08-27T12:27:58.787Z,19.99
2022-08-27T12:30:31.976Z,19.97
2022-08-27T12:33:00.976Z,19.73
2022-08-27T12:35:38.428Z,20.88
2022-08-27T12:38:12.828Z,21.86
2022-08-27T12:40:46.397Z,22.17
2022-08-27T12:43:15.696Z,22.36
2022-08-27T12:45:48.157Z,22.70
2022-08-27T12:48:20.470Z,22.74
2022-08-27T12:50:54.168Z,23.06
2022-08-27T12:53:43.953Z,23.15
2022-08-27T12:56:28.047Z,23.17
2022-08-27T12:59:01.801Z,23.26
2022-08-27T13:01:49.908Z,23.35
2022-08-27T13:04:22.683Z,23.61
2022-08-27T13:06:51.741Z,23.78
2022-08-27T13:09:27.916Z,23.94
2022-08-27T13:11:56.875Z,24.06
2022-08-27T13:14:26.833Z,24.19
2022-08-27T13:16:57.276Z,24.22
2022-08-27T13:19:28.028Z,24.42
2022-08-27T13:21:57.708Z,24.62
2022-08-27T13:24:31.045Z,24.67
2022-08-27T13:26:59.420Z,24.76
2022-08-27T13:29:27.645Z,24.70
2022-08-27T13:31:56.272Z,24.37
2022-08-27T13:34:26.703Z,24.59
2022-08-27T13:36:59.839Z,24.63
2022-08-27T13:39:28.170Z,24.69
2022-08-27T13:41:59.484Z,24.29
2022-08-27T13:44:32.328Z,23.44
2022-08-27T13:47:03.227Z,23.33
2022-08-27T13:49:34.536Z,24.05
2022-08-27T13:52:24.500Z,24.49
2022-08-27T13:54:57.736Z,24.03
2022-08-27T13:57:26.872Z,24.16
2022-08-27T13:59:54.419Z,24.83
2022-08-27T14:02:27.570Z,24.59
2022-08-27T14:05:11.051Z,25.55
2022-08-27T14:07:44.378Z,25.89
2022-08-27T14:10:30.587Z,25.61
2022-08-27T14:13:01.036Z,25.98
2022-08-27T14:15:33.592Z,26.28
2022-08-27T14:18:02.623Z,26.42
2022-08-27T14:20:30.335Z,26.06
2022-08-27T14:22:59.620Z,25.65
2022-08-27T14:25:27.487Z,25.06
2022-08-27T14:27:57.085Z,25.41
2022-08-27T14:30:29.267Z,25.87
2022-08-27T14:32:58.493Z,25.83
2022-08-27T14:35:26.279Z,24.95
2022-08-27T14:37:54.612Z,24.62
2022-08-27T14:40:23.594Z,24.33
2022-08-27T14:42:51.217Z,24.73
2022-08-27T14:45:19.653Z,25.75
2022-08-27T14:47:47.338Z,26.41
2022-08-27T14:50:15.495Z,26.93
2022-08-27T14:52:42.984Z,26.81
2022-08-27T14:55:14.241Z,26.69
2022-08-27T14:57:43.060Z,26.88
2022-08-27T15:00:11.866Z,26.82
2022-08-27T15:02:43.966Z,27.14
2022-08-27T15:05:16.282Z,27.25
2022-08-27T15:07:46.197Z,27.24
2022-08-27T15:10:15.435Z,27.16
2022-08-27T15:12:44.409Z,27.33
2022-08-27T15:15:12.688Z,27.12
2022-08-27T15:17:40.212Z,27.62
2022-08-27T15:20:18.883Z,27.61
2022-08-27T15:22:49.226Z,28.33
2022-08-27T15:25:17.189Z,28.09
2022-08-27T15:27:46.074Z,27.67
2022-08-27T15:30:16.460Z,27.02
2022-08-27T15:32:45.811Z,27.30
2022-08-27T15:35:17.088Z,23.87
2022-08-27T15:37:45.605Z,21.84
2022-08-27T15:40:14.591Z,21.08
2022-08-27T15:42:42.960Z,20.77
2022-08-27T15:45:13.781Z,20.70
2022-08-27T15:47:41.285Z,20.72
2022-08-27T15:50:09.543Z,21.33
2022-08-27T15:52:40.897Z,21.47
2022-08-27T15:55:15.760Z,21.28
2022-08-27T15:57:43.251Z,21.48
2022-08-27T16:00:13.380Z,21.01
2022-08-27T16:02:42.335Z,21.11
2022-08-27T16:05:11.000Z,20.93
2022-08-27T16:07:38.632Z,21.20
2022-08-27T16:10:07.605Z,21.18
2022-08-27T16:12:35.760Z,20.88
2022-08-27T16:15:05.798Z,20.79
2022-08-27T16:17:36.250Z,20.88
2022-08-27T16:20:06.064Z,20.81
2022-08-27T16:22:34.736Z,20.41
2022-08-27T16:25:02.490Z,20.20
2022-08-27T16:27:29.980Z,20.20
2022-08-27T16:29:57.579Z,20.37
2022-08-27T16:32:25.941Z,20.21
2022-08-27T16:34:55.840Z,19.97
2022-08-27T16:37:24.055Z,19.96
2022-08-27T16:39:52.061Z,20.20
2022-08-27T16:42:19.733Z,20.44
2022-08-27T16:44:47.219Z,20.38
2022-08-27T16:47:14.872Z,20.31
2022-08-27T16:50:00.843Z,20.22
2022-08-27T16:52:30.066Z,20.34
2022-08-27T16:54:57.612Z,20.55
2022-08-27T16:57:25.102Z,20.84
2022-08-27T16:59:54.946Z,21.22
2022-08-27T17:02:30.669Z,21.18
2022-08-27T17:05:12.276Z,21.36
2022-08-27T17:07:48.228Z,21.14
2022-08-27T17:10:17.212Z,21.21
2022-08-27T17:12:46.207Z,21.58
2022-08-27T17:15:14.478Z,21.19
2022-08-27T17:17:42.068Z,21.43
2022-08-27T17:20:10.324Z,21.41
2022-08-27T17:22:38.059Z,21.47
2022-08-27T17:25:08.660Z,20.62
2022-08-27T17:27:36.489Z,20.72
2022-08-27T17:30:05.078Z,20.95
2022-08-27T17:32:37.474Z,20.48
2022-08-27T17:35:06.552Z,20.32
2022-08-27T17:37:34.722Z,20.50
2022-08-27T17:40:02.719Z,20.61
2022-08-27T17:42:32.326Z,20.53
2022-08-27T17:45:00.126Z,20.84
2022-08-27T17:47:27.809Z,20.98
2022-08-27T17:49:55.292Z,21.51
2022-08-27T17:52:23.755Z,21.29
2022-08-27T17:54:54.121Z,21.79
2022-08-27T17:57:23.859Z,22.21
2022-08-27T17:59:54.305Z,22.43
2022-08-27T18:02:25.459Z,22.48
2022-08-27T18:04:53.027Z,22.47
2022-08-27T18:07:20.937Z,22.53
2022-08-27T18:09:49.111Z,22.61
2022-08-27T18:12:19.659Z,22.68
2022-08-27T18:14:53.062Z,22.75
2022-08-27T18:17:36.676Z,22.78
2022-08-27T18:20:06.215Z,22.76
2022-08-27T18:22:38.755Z,22.67
2022-08-27T18:25:09.398Z,22.71
2022-08-27T18:27:38.295Z,22.76
2022-08-27T18:30:07.341Z,22.77
2022-08-27T18:32:36.436Z,22.77
2022-08-27T18:35:08.096Z,22.78
2022-08-27T18:37:35.579Z,22.44
2022-08-27T18:40:03.276Z,22.53
2022-08-27T18:42:31.202Z,22.28
2022-08-27T18:45:01.487Z,21.50
2022-08-27T18:47:32.680Z,21.55
2022-08-27T18:50:01.493Z,21.59
2022-08-27T18:52:28.974Z,21.64
2022-08-27T18:54:56.585Z,21.91
2022-08-27T18:57:25.860Z,21.85
2022-08-27T18:59:53.366Z,22.02
2022-08-27T19:02:22.405Z,22.22
2022-08-27T19:04:50.325Z,22.15
2022-08-27T19:07:19.221Z,21.76
2022-08-27T19:09:49.967Z,21.47
2022-08-27T19:12:17.606Z,21.19
2022-08-27T19:14:47.808Z,21.12
2022-08-27T19:17:24.590Z,20.35
2022-08-27T19:19:52.751Z,20.64
2022-08-27T19:22:21.632Z,20.90
2022-08-27T19:24:50.768Z,21.39
2022-08-27T19:27:24.692Z,21.64
2022-08-27T19:29:53.291Z,21.87
2022-08-27T19:32:21.115Z,21.65
2022-08-27T19:34:48.750Z,21.57
2022-08-27T19:37:21.010Z,21.08
2022-08-27T19:39:49.830Z,20.56
2022-08-27T19:42:17.613Z,20.45
2022-08-27T19:44:45.376Z,20.51
2022-08-27T19:47:14.856Z,20.06
2022-08-27T19:49:46.131Z,20.56
2022-08-27T19:52:14.026Z,20.29
2022-08-27T19:54:56.851Z,20.27
2022-08-27T19:57:30.451Z,20.80
2022-08-27T19:59:57.942Z,20.69
2022-08-27T20:02:25.899Z,20.31
2022-08-27T20:05:16.488Z,20.46
2022-08-27T20:07:41.371Z,20.80
2022-08-27T20:10:09.536Z,21.10
2022-08-27T20:12:38.461Z,21.10
2022-08-27T20:15:06.848Z,21.45
2022-08-27T20:17:35.399Z,21.66
2022-08-27T20:20:03.008Z,21.72
2022-08-27T20:22:30.616Z,21.62
2022-08-27T20:24:58.105Z,20.93
2022-08-27T20:27:25.637Z,20.34
2022-08-27T20:29:55.907Z,19.97
2022-08-27T20:32:29.236Z,20.01
2022-08-27T20:34:57.464Z,20.07
2022-08-27T20:37:25.024Z,20.06
2022-08-27T20:39:52.780Z,20.36
2022-08-27T20:42:20.618Z,20.29
2022-08-27T20:44:48.834Z,20.29
2022-08-27T20:47:18.743Z,19.96
2022-08-27T20:49:46.227Z,19.81
2022-08-27T20:52:14.028Z,20.18
2022-08-27T20:54:41.644Z,20.50
2022-08-27T20:57:09.585Z,20.64
2022-08-27T20:59:54.990Z,20.63
2022-08-27T21:02:26.268Z,20.17
2022-08-27T21:04:54.709Z,20.23
2022-08-27T21:07:23.815Z,20.24
2022-08-27T21:09:56.996Z,20.30
2022-08-27T21:12:26.597Z,20.09
2022-08-27T21:14:55.980Z,19.95
2022-08-27T21:17:26.527Z,19.92
2022-08-27T21:19:54.178Z,19.62
2022-08-27T21:22:22.556Z,19.69
2022-08-27T21:24:50.534Z,19.48
2022-08-27T21:27:21.002Z,19.37
2022-08-27T21:29:49.199Z,19.13
2022-08-27T21:32:17.808Z,19.07
2022-08-27T21:34:46.956Z,19.09
2022-08-27T21:37:15.554Z,19.42
2022-08-27T21:39:44.230Z,19.42
2022-08-27T21:42:15.379Z,19.27
2022-08-27T21:44:43.008Z,19.37
2022-08-27T21:47:11.184Z,19.13
2022-08-27T21:49:38.726Z,19.09
2022-08-27T21:52:07.852Z,18.92
2022-08-27T21:54:38.372Z,19.11
2022-08-27T21:57:06.848Z,19.05
2022-08-27T21:59:40.044Z,19.06
2022-08-27T22:02:28.794Z,19.18
2022-08-27T22:04:55.720Z,19.13
2022-08-27T22:07:24.694Z,19.02
2022-08-27T22:09:52.177Z,19.33
2022-08-27T22:12:19.668Z,19.55
2022-08-27T22:14:47.163Z,19.53
2022-08-27T22:17:15.846Z,19.00
2022-08-27T22:19:43.420Z,18.93
2022-08-27T22:22:10.935Z,18.89
2022-08-27T22:24:39.774Z,18.92
2022-08-27T22:27:07.267Z,18.90
2022-08-27T22:29:34.756Z,19.05
2022-08-27T22:32:02.254Z,18.92
2022-08-27T22:34:29.741Z,18.91
2022-08-27T22:36:57.200Z,18.81
2022-08-27T22:39:24.752Z,18.95
2022-08-27T22:41:56.016Z,19.00
2022-08-27T22:44:24.219Z,18.78
2022-08-27T22:46:52.645Z,18.84
2022-08-27T22:49:20.201Z,18.83
2022-08-27T22:51:49.176Z,18.96
2022-08-27T22:54:17.239Z,19.03
2022-08-27T22:56:44.979Z,19.18
2022-08-27T22:59:14.320Z,19.30
2022-08-27T23:01:42.213Z,19.10
2022-08-27T23:04:09.902Z,19.13
2022-08-27T23:06:38.290Z,19.26
2022-08-27T23:09:05.947Z,19.18
2022-08-27T23:11:33.480Z,19.22
2022-08-27T23:14:01.666Z,19.21
2022-08-27T23:16:31.657Z,19.12
2022-08-27T23:18:59.308Z,19.13
2022-08-27T23:21:26.825Z,19.29
2022-08-27T23:23:54.324Z,19.13
2022-08-27T23:26:54.123Z,19.54
2022-08-27T23:29:22.945Z,19.34
2022-08-27T23:31:52.895Z,19.60
2022-08-27T23:34:22.696Z,19.25
2022-08-27T23:36:50.865Z,19.34
2022-08-27T23:39:18.734Z,19.03
2022-08-27T23:41:46.242Z,18.87
2022-08-27T23:44:13.757Z,18.84
2022-08-27T23:46:41.272Z,18.74
2022-08-27T23:49:10.131Z,18.84
2022-08-27T23:51:38.564Z,18.94
2022-08-27T23:54:06.101Z,19.08
2022-08-27T23:56:33.601Z,19.05
2022-08-27T23:59:01.075Z,19.09
